• Join FlightAware (Why Join?)
  • Login
  • US Flag 
08:20AM EDT


 

Airport Tracker/Info


-or-


 

Live Flight TrackerFlight Track Log ✈ AWI3778 ✈ 16-Jun-2013 ✈ KPHL - KBTV

Flight Track Log - Related Links

Times and Time Zones

All times are in EDT time to prevent confusion due to time zone crossing. See the AWI3778 flight status page for this flight to view local times or setup timezone preferences in your user account.

Time Position Orientation Groundspeed Altitude Reporting Facility
EDT Latitude Longitude Course Direction KTS MPH feet Rate Location/Type
12:32PM 39.8667 -75.2667 37° Northeast 153 176 600  Level Philadelphia TRACON
12:32PM 39.8500 -75.2833 218° Southwest 159 183 1,200 1,980 Climbing Philadelphia TRACON
12:33PM 39.8167 -75.3333 229° Southwest 201 231 3,200 2,280 Climbing Philadelphia TRACON
12:34PM 39.7667 -75.3500 194° South 242 278 5,800 1,860 Climbing Philadelphia TRACON
12:35PM 39.8167 -74.8908 90° East  Level FlightAware Approximate
12:36PM 39.7981 -74.7739 105° East  Level FlightAware Approximate
12:36PM 39.7703 -75.1867 88° East 275 316 8,700  Level New York Center
12:37PM 39.8099 -74.6735 37° Northeast  Level FlightAware Approximate
12:37PM 39.7753 -75.0492 87° East 301 346 10,600  Level New York Center
12:38PM 39.7817 -74.9281 86° East 329 379 12,000 1,140 Climbing New York Center
12:39PM 39.7906 -74.7936 85° East 356 410 12,900 1,260 Climbing New York Center
12:40PM 39.8386 -74.6719 63° Northeast 370 426 14,600 1,680 Climbing New York Center
12:41PM 39.9225 -74.5900 37° Northeast 355 409 16,300 1,560 Climbing New York Center
12:42PM 40.0086 -74.5053 37° Northeast 360 414 17,800 1,200 Climbing New York Center
12:43PM 40.0858 -74.4336 35° Northeast 386 444 18,800 1,020 Climbing New York Center
12:44PM 40.1850 -74.3328 38° Northeast 392 451 19,900 1,080 Climbing New York Center
12:45PM 40.2731 -74.2450 37° Northeast 397 457 21,000 1,020 Climbing New York Center
12:46PM 40.3631 -74.1542 38° Northeast 402 463 22,000 1,020 Climbing New York Center
12:47PM 40.4575 -74.0633 36° Northeast 402 463 23,100 1,020 Climbing New York Center
12:48PM 40.5492 -73.9803 35° Northeast 402 463 24,100 900 Climbing New York Center
12:49PM 40.6392 -73.8889 38° Northeast 402 463 25,000 240 Climbing New York Center
12:52PM 40.8853 -73.8072 14° North 376 433 25,000  Level Boston Center
12:53PM 40.9919 -73.7847 North 376 433 25,000  Level Boston Center
12:54PM 41.0922 -73.7619 10° North 371 427 25,000  Level Boston Center
12:55PM 41.1944 -73.7422 North 371 427 25,000  Level Boston Center
12:56PM 41.2947 -73.7192 10° North 371 427 25,000  Level Boston Center
12:57PM 41.4161 -73.6939 North 366 421 25,000  Level Boston Center
12:58PM 41.5206 -73.6711 North 371 427 25,000  Level Boston Center
12:59PM 41.6208 -73.6508 North 371 427 25,000  Level Boston Center
01:00PM 41.7208 -73.6306 North 371 427 25,000  Level Boston Center
01:01PM 41.8442 -73.6022 10° North 371 427 25,000  Level Boston Center
01:02PM 41.9444 -73.5789 10° North 371 427 25,000  Level Boston Center
01:03PM 42.0572 -73.5558 North 371 427 25,000  Level Boston Center
01:04PM 42.1492 -73.5322 11° North 377 434 25,000  Level Boston Center
01:05PM 42.2536 -73.5058 11° North 371 427 25,000  Level Boston Center
01:06PM 42.3622 -73.4881 North 371 427 25,000  Level Boston Center
01:07PM 42.4458 -73.4697 North 371 427 25,000  Level Boston Center
01:08PM 42.5669 -73.4464 North 371 427 25,000  Level Boston Center
01:09PM 42.6692 -73.4200 11° North 371 427 25,000  Level Boston Center
01:10PM 42.7714 -73.3989 North 371 427 25,100  Climbing Boston Center
01:11PM 42.8678 -73.3436 23° Northeast 371 427 25,000 -60 Descending Boston Center
01:12PM 42.9500 -73.2344 44° Northeast 378 435 25,000  Level Boston Center
01:13PM 43.0319 -73.1247 44° Northeast 391 450 25,000  Level Boston Center
01:14PM 43.1219 -73.0431 34° Northeast 398 458 25,000 -240 Level Boston Center
01:15PM 43.2219 -73.0583 354° North 357 411 24,600 -540 Descending Boston Center
01:16PM 43.3261 -73.0736 354° North 356 410 24,000 -300 Descending Boston Center
01:17PM 43.4136 -73.0803 357° North 361 415 24,000 -240 Level Boston Center
01:18PM 43.5156 -73.0900 356° North 361 415 23,600 -1,260 Descending Boston Center
01:19PM 43.6136 -73.0997 356° North 361 415 21,500 -2,160 Descending Boston Center
01:20PM 43.7156 -73.1122 355° North 350 403 19,300 -2,100 Descending Boston Center
01:21PM 43.8050 -73.1219 356° North 330 380 17,400 -1,980 Descending Boston Center
01:22PM 43.8883 -73.1314 355° North 329 379 15,400 -1,920 Descending Boston Center
01:23PM 43.9736 -73.1614 346° North 324 373 13,600 -1,920 Descending Boston Center
01:24PM 44.0608 -73.1883 347° North 318 366 11,600 -1,980 Descending Boston Center
01:25PM 44.1442 -73.2125 348° North 312 359 9,700 -1,980 Descending Boston Center
01:26PM 44.2253 -73.2339 349° North 305 351 7,700 -2,040 Descending Boston Center
01:27PM 44.3042 -73.2697 342° North 295 339 5,700 -2,040 Descending Boston Center
01:28PM 44.3789 -73.3028 342° North 290 334 3,700 -1,380 Descending Boston Center
01:29PM 44.4475 -73.3356 341° North 269 310 3,000 -720 Descending Boston Center